createdAt,value
2018-06-07T00:10:41.000Z,40.651
2018-06-07T00:20:40.000Z,40.671
2018-06-07T00:30:40.000Z,40.823
2018-06-07T00:40:40.000Z,40.941
2018-06-07T00:50:40.000Z,40.96
2018-06-07T01:00:40.000Z,41.078
2018-06-07T01:10:40.000Z,41.108
2018-06-07T01:20:40.000Z,41.117
2018-06-07T01:30:40.000Z,41.179
2018-06-07T01:40:40.000Z,41.231
2018-06-07T01:50:40.000Z,41.284
2018-06-07T02:00:40.000Z,41.315
2018-06-07T02:10:40.000Z,41.346
2018-06-07T02:20:40.000Z,41.409
2018-06-07T02:30:40.000Z,41.441
2018-06-07T02:40:40.000Z,41.525
2018-06-07T02:50:40.000Z,41.589
2018-06-07T03:00:40.000Z,41.609
2018-06-07T03:10:40.000Z,41.662
2018-06-07T03:20:40.000Z,41.67
2018-06-07T03:30:40.000Z,41.69
2018-06-07T03:40:40.000Z,41.711
2018-06-07T03:50:40.000Z,41.754
2018-06-07T04:00:40.000Z,41.742
2018-06-07T04:10:40.000Z,41.762
2018-06-07T04:20:40.000Z,41.773
2018-06-07T04:30:40.000Z,41.75
2018-06-07T04:40:40.000Z,41.597
2018-06-07T04:50:40.000Z,41.424
2018-06-07T05:00:40.000Z,41.359
2018-06-07T05:10:40.000Z,41.2
2018-06-07T05:20:40.000Z,40.995
2018-06-07T05:30:40.000Z,41.135
2018-06-07T05:40:40.000Z,40.9
2018-06-07T05:50:40.000Z,40.89
2018-06-07T06:00:41.000Z,40.719
2018-06-07T06:10:41.000Z,40.582
2018-06-07T06:20:41.000Z,40.532
2018-06-07T06:30:41.000Z,40.57
2018-06-07T06:40:41.000Z,40.411
2018-06-07T06:50:41.000Z,40.503
2018-06-07T07:00:41.000Z,40.499
2018-06-07T07:10:41.000Z,40.41
2018-06-07T07:20:41.000Z,40.34
2018-06-07T07:40:41.000Z,40.342
2018-06-07T07:50:41.000Z,40.208
2018-06-07T08:00:41.000Z,40.334
2018-06-07T08:10:41.000Z,39.926
2018-06-07T08:20:41.000Z,39.783
2018-06-07T08:30:41.000Z,39.651
2018-06-07T08:40:41.000Z,39.605
2018-06-07T08:50:41.000Z,39.947
2018-06-07T09:00:41.000Z,39.515
2018-06-07T09:10:41.000Z,39.396
2018-06-07T09:20:41.000Z,39.213
2018-06-07T09:30:41.000Z,39.1
2018-06-07T09:40:41.000Z,38.59
2018-06-07T09:50:41.000Z,38.427
2018-06-07T10:00:41.000Z,38.527
2018-06-07T10:10:41.000Z,38.586
2018-06-07T10:20:41.000Z,38.223
2018-06-07T10:30:41.000Z,38.194
2018-06-07T10:40:41.000Z,38.113
2018-06-07T10:50:41.000Z,38.154
2018-06-07T11:00:41.000Z,37.687
2018-06-07T11:10:41.000Z,37.406
2018-06-07T11:20:41.000Z,37.11
2018-06-07T11:30:41.000Z,36.692
2018-06-07T11:40:41.000Z,36.943
2018-06-07T11:50:41.000Z,36.455
2018-06-07T12:00:41.000Z,36.679
2018-06-07T12:10:42.000Z,35.462
2018-06-07T12:20:41.000Z,35.707
2018-06-07T12:30:41.000Z,34.91
2018-06-07T12:40:41.000Z,34.559
2018-06-07T12:50:41.000Z,35.311
2018-06-07T13:00:41.000Z,35.005
2018-06-07T13:10:41.000Z,34.189
2018-06-07T13:20:41.000Z,34.59
2018-06-07T13:50:42.000Z,34.419
2018-06-07T14:10:42.000Z,34.155
2018-06-07T14:20:42.000Z,34.259
2018-06-07T14:30:42.000Z,34.744
2018-06-07T14:40:42.000Z,34.561
2018-06-07T14:50:42.000Z,34.485
2018-06-07T15:00:42.000Z,34.696
2018-06-07T15:30:42.000Z,34.071
2018-06-07T15:40:42.000Z,34.073
2018-06-07T15:50:42.000Z,34.11
2018-06-07T16:00:42.000Z,34.9
2018-06-07T16:10:42.000Z,37.153
2018-06-07T16:20:42.000Z,37.791
2018-06-07T16:30:44.000Z,37.776
2018-06-07T16:40:42.000Z,37.926
2018-06-07T16:50:43.000Z,38.272
2018-06-07T17:00:42.000Z,38.358
2018-06-07T17:10:42.000Z,38.455
2018-06-07T17:20:44.000Z,38.629
2018-06-07T17:30:42.000Z,38.784
2018-06-07T17:40:42.000Z,38.914
2018-06-07T17:50:42.000Z,39.113
2018-06-07T18:00:44.000Z,39.212
2018-06-07T18:10:42.000Z,40.38
2018-06-07T18:20:45.000Z,40
2018-06-07T18:30:45.000Z,40.196
2018-06-07T18:40:43.000Z,40.371
2018-06-07T18:50:42.000Z,40.323
2018-06-07T19:00:42.000Z,40.41
2018-06-07T19:10:43.000Z,44.708
2018-06-07T19:20:42.000Z,45.057
2018-06-07T19:30:42.000Z,44.924
2018-06-07T19:40:42.000Z,45.078
2018-06-07T19:50:43.000Z,44
2018-06-07T20:00:42.000Z,43.226
2018-06-07T20:10:42.000Z,42.827
2018-06-07T20:20:42.000Z,42.173
2018-06-07T20:40:42.000Z,41.65
2018-06-07T20:50:42.000Z,41.962
2018-06-07T21:00:43.000Z,42.126
2018-06-07T21:10:42.000Z,43.416
2018-06-07T21:20:42.000Z,42.881
2018-06-07T21:30:42.000Z,43.051
2018-06-07T21:40:42.000Z,43.28
2018-06-07T21:50:42.000Z,43.529
2018-06-07T22:00:42.000Z,43.226
2018-06-07T22:10:43.000Z,42.971
2018-06-07T22:20:43.000Z,42.943
2018-06-07T22:30:43.000Z,42.884
2018-06-07T22:40:43.000Z,42.748
2018-06-07T22:50:43.000Z,42.5
2018-06-07T23:00:44.000Z,42.331
2018-06-07T23:10:43.000Z,42.021
2018-06-07T23:20:43.000Z,41.786
2018-06-07T23:30:43.000Z,42.047
2018-06-07T23:40:43.000Z,42.035
2018-06-07T23:50:43.000Z,42.312
